Forestville, Canada
Current Conditions -  °F | °C
As of 11:00 AM on Thursday 30 Oct 2014 (Local Time) from CYYY Reporting Station
Few Clouds Few Clouds  
Wind Chill: 34°   Ceiling: Unl
Heat Index: 43°   Visibility: 30mi
Dew Point: 34°   Wind: 20mph
Humidity: 70%   Direction: 250°WSW
Pressure: 29.79"   Gusts: 26mph
Location:  48.73°N, 69.07°W
Report Text: CYYY 301500Z 25017G23KT 30SM FEW020 FEW040 06/01 A2979 RMK SC1SC1 SLP089
Loading
Personal Weather Stations






























Interactive Weather Map
Tropical Storm Tracking
New forecast layout! Learn more

10-Day Weather Forecast

Advertisements
Track Severe Weather on mobile